sensor_id;sensor_type;location;lat;lon;timestamp;temperature;humidity
37868;DHT22;24011;48.880;9.190;2023-03-15T00:01:41;24.10;35.10
37868;DHT22;24011;48.880;9.190;2023-03-15T00:04:14;24.10;35.10
37868;DHT22;24011;48.880;9.190;2023-03-15T00:06:46;24.10;35.00
37868;DHT22;24011;48.880;9.190;2023-03-15T00:09:21;24.10;35.10
37868;DHT22;24011;48.880;9.190;2023-03-15T00:11:54;24.10;35.10
37868;DHT22;24011;48.880;9.190;2023-03-15T00:14:25;24.10;35.70
37868;DHT22;24011;48.880;9.190;2023-03-15T00:16:57;24.10;35.00
37868;DHT22;24011;48.880;9.190;2023-03-15T00:19:28;24.10;35.10
37868;DHT22;24011;48.880;9.190;2023-03-15T00:22:01;24.10;35.10
37868;DHT22;24011;48.880;9.190;2023-03-15T00:24:35;24.10;35.10
37868;DHT22;24011;48.880;9.190;2023-03-15T00:27:11;24.10;35.10
37868;DHT22;24011;48.880;9.190;2023-03-15T00:29:43;24.10;35.10
37868;DHT22;24011;48.880;9.190;2023-03-15T00:32:16;24.10;35.10
37868;DHT22;24011;48.880;9.190;2023-03-15T00:34:48;24.10;35.10
37868;DHT22;24011;48.880;9.190;2023-03-15T00:37:22;24.00;35.00
37868;DHT22;24011;48.880;9.190;2023-03-15T00:39:57;24.10;35.20
37868;DHT22;24011;48.880;9.190;2023-03-15T00:42:34;24.10;35.20
37868;DHT22;24011;48.880;9.190;2023-03-15T00:45:06;24.00;35.10
37868;DHT22;24011;48.880;9.190;2023-03-15T00:47:39;24.00;35.10
37868;DHT22;24011;48.880;9.190;2023-03-15T00:50:10;24.00;35.10
37868;DHT22;24011;48.880;9.190;2023-03-15T00:52:40;24.00;35.10
37868;DHT22;24011;48.880;9.190;2023-03-15T00:55:14;24.00;35.10
37868;DHT22;24011;48.880;9.190;2023-03-15T00:57:49;24.00;35.10
37868;DHT22;24011;48.880;9.190;2023-03-15T01:00:22;24.00;35.10
37868;DHT22;24011;48.880;9.190;2023-03-15T01:02:54;24.00;35.10
37868;DHT22;24011;48.880;9.190;2023-03-15T01:05:25;24.00;35.10
37868;DHT22;24011;48.880;9.190;2023-03-15T01:07:54;24.00;35.10
37868;DHT22;24011;48.880;9.190;2023-03-15T01:10:28;24.00;35.10
37868;DHT22;24011;48.880;9.190;2023-03-15T01:12:58;24.00;35.10
37868;DHT22;24011;48.880;9.190;2023-03-15T01:15:28;24.00;35.10
37868;DHT22;24011;48.880;9.190;2023-03-15T01:17:59;24.00;35.20
37868;DHT22;24011;48.880;9.190;2023-03-15T01:20:31;24.00;35.10
37868;DHT22;24011;48.880;9.190;2023-03-15T01:23:04;23.90;35.10
37868;DHT22;24011;48.880;9.190;2023-03-15T01:25:43;23.90;35.10
37868;DHT22;24011;48.880;9.190;2023-03-15T01:28:15;24.00;35.20
37868;DHT22;24011;48.880;9.190;2023-03-15T01:30:50;24.00;35.10
37868;DHT22;24011;48.880;9.190;2023-03-15T01:33:22;24.00;35.10
37868;DHT22;24011;48.880;9.190;2023-03-15T01:36:03;24.00;35.10
37868;DHT22;24011;48.880;9.190;2023-03-15T01:38:34;23.90;35.10
37868;DHT22;24011;48.880;9.190;2023-03-15T01:41:11;24.00;35.10
37868;DHT22;24011;48.880;9.190;2023-03-15T01:43:42;24.00;35.10
37868;DHT22;24011;48.880;9.190;2023-03-15T01:46:21;24.00;35.20
37868;DHT22;24011;48.880;9.190;2023-03-15T01:48:56;24.00;35.10
37868;DHT22;24011;48.880;9.190;2023-03-15T01:51:33;23.90;35.20
37868;DHT22;24011;48.880;9.190;2023-03-15T01:54:11;23.90;35.20
37868;DHT22;24011;48.880;9.190;2023-03-15T01:56:49;23.90;35.20
37868;DHT22;24011;48.880;9.190;2023-03-15T01:59:29;23.90;35.20
37868;DHT22;24011;48.880;9.190;2023-03-15T02:02:03;23.90;35.20
37868;DHT22;24011;48.880;9.190;2023-03-15T02:04:42;23.90;35.20
37868;DHT22;24011;48.880;9.190;2023-03-15T02:07:17;23.90;35.20
37868;DHT22;24011;48.880;9.190;2023-03-15T02:09:53;23.90;35.20
37868;DHT22;24011;48.880;9.190;2023-03-15T02:12:31;23.90;35.20
37868;DHT22;24011;48.880;9.190;2023-03-15T02:15:04;23.90;35.20
37868;DHT22;24011;48.880;9.190;2023-03-15T02:17:38;23.90;35.20
37868;DHT22;24011;48.880;9.190;2023-03-15T02:20:19;23.90;35.20
37868;DHT22;24011;48.880;9.190;2023-03-15T02:23:00;23.90;35.20
37868;DHT22;24011;48.880;9.190;2023-03-15T02:25:39;23.90;35.20
37868;DHT22;24011;48.880;9.190;2023-03-15T02:28:24;23.90;35.20
37868;DHT22;24011;48.880;9.190;2023-03-15T02:30:57;23.90;35.20
37868;DHT22;24011;48.880;9.190;2023-03-15T02:33:31;23.90;35.20
37868;DHT22;24011;48.880;9.190;2023-03-15T02:36:14;23.80;35.20
37868;DHT22;24011;48.880;9.190;2023-03-15T02:38:47;23.90;35.10
37868;DHT22;24011;48.880;9.190;2023-03-15T02:41:25;23.90;35.10
37868;DHT22;24011;48.880;9.190;2023-03-15T02:44:04;23.90;35.10
37868;DHT22;24011;48.880;9.190;2023-03-15T02:46:37;23.90;35.10
37868;DHT22;24011;48.880;9.190;2023-03-15T02:49:13;23.90;35.20
37868;DHT22;24011;48.880;9.190;2023-03-15T02:51:46;23.80;35.20
37868;DHT22;24011;48.880;9.190;2023-03-15T02:54:21;23.80;35.20
37868;DHT22;24011;48.880;9.190;2023-03-15T02:56:57;23.80;35.20
37868;DHT22;24011;48.880;9.190;2023-03-15T02:59:29;23.80;35.20
37868;DHT22;24011;48.880;9.190;2023-03-15T03:02:04;23.80;35.20
37868;DHT22;24011;48.880;9.190;2023-03-15T03:04:39;23.80;35.20
37868;DHT22;24011;48.880;9.190;2023-03-15T03:07:12;23.80;35.30
37868;DHT22;24011;48.880;9.190;2023-03-15T03:09:44;23.80;35.30
37868;DHT22;24011;48.880;9.190;2023-03-15T03:12:17;23.80;35.30
37868;DHT22;24011;48.880;9.190;2023-03-15T03:14:52;23.80;35.30
37868;DHT22;24011;48.880;9.190;2023-03-15T03:17:24;23.80;35.30
37868;DHT22;24011;48.880;9.190;2023-03-15T03:19:55;23.80;35.20
37868;DHT22;24011;48.880;9.190;2023-03-15T03:22:26;23.80;35.20
37868;DHT22;24011;48.880;9.190;2023-03-15T03:24:56;23.80;35.30
37868;DHT22;24011;48.880;9.190;2023-03-15T03:27:29;23.80;35.30
37868;DHT22;24011;48.880;9.190;2023-03-15T03:30:10;23.80;35.30
37868;DHT22;24011;48.880;9.190;2023-03-15T03:32:41;23.80;35.30
37868;DHT22;24011;48.880;9.190;2023-03-15T03:35:12;23.80;35.30
37868;DHT22;24011;48.880;9.190;2023-03-15T03:37:45;23.80;35.30
37868;DHT22;24011;48.880;9.190;2023-03-15T03:40:16;23.80;35.30
37868;DHT22;24011;48.880;9.190;2023-03-15T03:42:46;23.80;35.30
37868;DHT22;24011;48.880;9.190;2023-03-15T03:45:20;23.80;35.30
37868;DHT22;24011;48.880;9.190;2023-03-15T03:47:51;23.80;35.30
37868;DHT22;24011;48.880;9.190;2023-03-15T03:50:21;23.80;35.30
37868;DHT22;24011;48.880;9.190;2023-03-15T03:52:54;23.80;35.30
37868;DHT22;24011;48.880;9.190;2023-03-15T03:55:25;23.80;35.30
37868;DHT22;24011;48.880;9.190;2023-03-15T03:57:56;23.70;35.00
37868;DHT22;24011;48.880;9.190;2023-03-15T04:00:28;23.70;34.90
37868;DHT22;24011;48.880;9.190;2023-03-15T04:02:59;23.60;35.00
37868;DHT22;24011;48.880;9.190;2023-03-15T04:05:31;23.60;35.00
37868;DHT22;24011;48.880;9.190;2023-03-15T04:08:02;23.60;35.00
37868;DHT22;24011;48.880;9.190;2023-03-15T04:10:33;23.50;35.00
37868;DHT22;24011;48.880;9.190;2023-03-15T04:13:04;23.50;35.10
37868;DHT22;24011;48.880;9.190;2023-03-15T04:15:37;23.60;35.20
37868;DHT22;24011;48.880;9.190;2023-03-15T04:18:09;23.60;35.20
37868;DHT22;24011;48.880;9.190;2023-03-15T04:20:40;23.60;35.20
37868;DHT22;24011;48.880;9.190;2023-03-15T04:23:13;23.60;35.40
37868;DHT22;24011;48.880;9.190;2023-03-15T04:25:46;23.60;35.50
37868;DHT22;24011;48.880;9.190;2023-03-15T04:28:19;23.60;35.70
37868;DHT22;24011;48.880;9.190;2023-03-15T04:30:51;23.60;35.70
37868;DHT22;24011;48.880;9.190;2023-03-15T04:33:26;23.60;35.70
37868;DHT22;24011;48.880;9.190;2023-03-15T04:35:57;23.60;35.70
37868;DHT22;24011;48.880;9.190;2023-03-15T04:38:31;23.60;35.70
37868;DHT22;24011;48.880;9.190;2023-03-15T04:41:02;23.60;35.80
37868;DHT22;24011;48.880;9.190;2023-03-15T04:43:38;23.60;35.90
37868;DHT22;24011;48.880;9.190;2023-03-15T04:46:12;23.60;35.90
37868;DHT22;24011;48.880;9.190;2023-03-15T04:48:42;23.60;36.00
37868;DHT22;24011;48.880;9.190;2023-03-15T04:51:12;23.60;36.10
37868;DHT22;24011;48.880;9.190;2023-03-15T04:53:43;23.60;36.20
37868;DHT22;24011;48.880;9.190;2023-03-15T04:56:18;23.60;36.20
37868;DHT22;24011;48.880;9.190;2023-03-15T04:58:51;23.60;36.20
37868;DHT22;24011;48.880;9.190;2023-03-15T05:01:28;23.60;36.30
37868;DHT22;24011;48.880;9.190;2023-03-15T05:03:58;23.50;36.30
37868;DHT22;24011;48.880;9.190;2023-03-15T05:06:28;23.50;36.30
37868;DHT22;24011;48.880;9.190;2023-03-15T05:09:08;23.50;36.40
37868;DHT22;24011;48.880;9.190;2023-03-15T05:11:49;23.50;36.50
37868;DHT22;24011;48.880;9.190;2023-03-15T05:14:19;23.50;36.60
37868;DHT22;24011;48.880;9.190;2023-03-15T05:16:59;23.50;36.60
37868;DHT22;24011;48.880;9.190;2023-03-15T05:19:30;23.50;36.70
37868;DHT22;24011;48.880;9.190;2023-03-15T05:22:05;23.40;36.70
37868;DHT22;24011;48.880;9.190;2023-03-15T05:24:41;23.50;36.80
37868;DHT22;24011;48.880;9.190;2023-03-15T05:27:14;23.50;36.80
37868;DHT22;24011;48.880;9.190;2023-03-15T05:29:47;23.50;36.90
37868;DHT22;24011;48.880;9.190;2023-03-15T05:32:20;23.50;36.90
37868;DHT22;24011;48.880;9.190;2023-03-15T05:34:54;23.50;36.80
37868;DHT22;24011;48.880;9.190;2023-03-15T05:37:26;23.50;36.90
37868;DHT22;24011;48.880;9.190;2023-03-15T05:39:57;23.50;36.90
37868;DHT22;24011;48.880;9.190;2023-03-15T05:42:30;23.50;37.00
37868;DHT22;24011;48.880;9.190;2023-03-15T05:45:00;23.50;37.00
37868;DHT22;24011;48.880;9.190;2023-03-15T05:47:37;23.50;37.00
37868;DHT22;24011;48.880;9.190;2023-03-15T05:50:10;23.50;37.10
37868;DHT22;24011;48.880;9.190;2023-03-15T05:52:42;23.40;37.00
37868;DHT22;24011;48.880;9.190;2023-03-15T05:55:12;23.40;37.10
37868;DHT22;24011;48.880;9.190;2023-03-15T05:57:45;23.50;37.10
37868;DHT22;24011;48.880;9.190;2023-03-15T06:00:16;23.50;37.10
37868;DHT22;24011;48.880;9.190;2023-03-15T06:02:47;23.50;37.20
37868;DHT22;24011;48.880;9.190;2023-03-15T06:05:17;23.50;37.10
37868;DHT22;24011;48.880;9.190;2023-03-15T06:07:48;23.50;37.10
37868;DHT22;24011;48.880;9.190;2023-03-15T06:10:21;23.50;37.10
37868;DHT22;24011;48.880;9.190;2023-03-15T06:12:54;23.50;37.10
37868;DHT22;24011;48.880;9.190;2023-03-15T06:15:29;23.50;37.10
37868;DHT22;24011;48.880;9.190;2023-03-15T06:18:04;23.60;37.10
37868;DHT22;24011;48.880;9.190;2023-03-15T06:20:35;23.60;37.10
37868;DHT22;24011;48.880;9.190;2023-03-15T06:23:06;23.60;37.00
37868;DHT22;24011;48.880;9.190;2023-03-15T06:25:35;23.60;37.10
37868;DHT22;24011;48.880;9.190;2023-03-15T06:28:07;23.60;36.90
37868;DHT22;24011;48.880;9.190;2023-03-15T06:30:37;23.70;37.00
37868;DHT22;24011;48.880;9.190;2023-03-15T06:33:09;23.70;36.90
37868;DHT22;24011;48.880;9.190;2023-03-15T06:35:38;23.80;37.00
37868;DHT22;24011;48.880;9.190;2023-03-15T06:38:07;23.70;37.00
37868;DHT22;24011;48.880;9.190;2023-03-15T06:40:45;23.70;37.00
37868;DHT22;24011;48.880;9.190;2023-03-15T06:43:19;23.80;37.00
37868;DHT22;24011;48.880;9.190;2023-03-15T06:45:51;23.70;37.00
37868;DHT22;24011;48.880;9.190;2023-03-15T06:48:24;23.80;36.90
37868;DHT22;24011;48.880;9.190;2023-03-15T06:50:56;23.80;37.00
37868;DHT22;24011;48.880;9.190;2023-03-15T06:53:25;23.80;36.90
37868;DHT22;24011;48.880;9.190;2023-03-15T06:55:54;23.90;36.90
37868;DHT22;24011;48.880;9.190;2023-03-15T06:58:26;23.90;36.80
37868;DHT22;24011;48.880;9.190;2023-03-15T07:00:58;23.90;36.80
37868;DHT22;24011;48.880;9.190;2023-03-15T07:03:29;23.90;36.70
37868;DHT22;24011;48.880;9.190;2023-03-15T07:05:58;23.90;36.70
37868;DHT22;24011;48.880;9.190;2023-03-15T07:08:35;23.90;36.90
37868;DHT22;24011;48.880;9.190;2023-03-15T07:11:04;23.90;36.80
37868;DHT22;24011;48.880;9.190;2023-03-15T07:13:36;23.90;36.90
37868;DHT22;24011;48.880;9.190;2023-03-15T07:16:08;23.90;36.90
37868;DHT22;24011;48.880;9.190;2023-03-15T07:18:39;23.90;36.90
37868;DHT22;24011;48.880;9.190;2023-03-15T07:21:09;23.90;36.90
37868;DHT22;24011;48.880;9.190;2023-03-15T07:23:38;24.00;36.90
37868;DHT22;24011;48.880;9.190;2023-03-15T07:26:08;24.00;36.90
37868;DHT22;24011;48.880;9.190;2023-03-15T07:28:37;24.00;36.90
37868;DHT22;24011;48.880;9.190;2023-03-15T07:31:10;24.00;36.90
37868;DHT22;24011;48.880;9.190;2023-03-15T07:33:44;23.90;37.20
37868;DHT22;24011;48.880;9.190;2023-03-15T07:36:16;23.90;36.90
37868;DHT22;24011;48.880;9.190;2023-03-15T07:38:45;24.00;36.90
37868;DHT22;24011;48.880;9.190;2023-03-15T07:41:16;24.00;36.90
37868;DHT22;24011;48.880;9.190;2023-03-15T07:43:46;24.00;36.90
37868;DHT22;24011;48.880;9.190;2023-03-15T07:46:15;24.00;37.00
37868;DHT22;24011;48.880;9.190;2023-03-15T07:48:46;23.90;36.90
37868;DHT22;24011;48.880;9.190;2023-03-15T07:51:16;24.00;37.00
37868;DHT22;24011;48.880;9.190;2023-03-15T07:53:45;24.00;36.90
37868;DHT22;24011;48.880;9.190;2023-03-15T07:56:18;24.00;37.00
37868;DHT22;24011;48.880;9.190;2023-03-15T07:58:47;24.00;36.90
37868;DHT22;24011;48.880;9.190;2023-03-15T08:01:17;24.00;36.90
37868;DHT22;24011;48.880;9.190;2023-03-15T08:03:51;24.00;36.90
37868;DHT22;24011;48.880;9.190;2023-03-15T08:06:21;24.10;37.00
37868;DHT22;24011;48.880;9.190;2023-03-15T08:08:50;24.10;36.90
37868;DHT22;24011;48.880;9.190;2023-03-15T08:11:20;24.10;36.80
37868;DHT22;24011;48.880;9.190;2023-03-15T08:13:51;24.20;36.80
37868;DHT22;24011;48.880;9.190;2023-03-15T08:16:20;24.20;36.80
37868;DHT22;24011;48.880;9.190;2023-03-15T08:18:56;24.20;36.70
37868;DHT22;24011;48.880;9.190;2023-03-15T08:21:25;24.30;36.60
37868;DHT22;24011;48.880;9.190;2023-03-15T08:23:54;24.30;36.50
37868;DHT22;24011;48.880;9.190;2023-03-15T08:26:26;24.40;36.60
37868;DHT22;24011;48.880;9.190;2023-03-15T08:28:56;24.40;36.50
37868;DHT22;24011;48.880;9.190;2023-03-15T08:31:25;24.40;36.40
37868;DHT22;24011;48.880;9.190;2023-03-15T08:33:58;24.50;36.40
37868;DHT22;24011;48.880;9.190;2023-03-15T08:36:27;24.50;36.20
37868;DHT22;24011;48.880;9.190;2023-03-15T08:38:56;24.60;36.30
37868;DHT22;24011;48.880;9.190;2023-03-15T08:41:25;24.50;36.30
37868;DHT22;24011;48.880;9.190;2023-03-15T08:43:55;24.60;36.30
37868;DHT22;24011;48.880;9.190;2023-03-15T08:46:24;24.60;36.20
37868;DHT22;24011;48.880;9.190;2023-03-15T08:49:01;24.60;36.30
37868;DHT22;24011;48.880;9.190;2023-03-15T08:51:30;24.60;36.20
37868;DHT22;24011;48.880;9.190;2023-03-15T08:54:00;24.60;36.20
37868;DHT22;24011;48.880;9.190;2023-03-15T08:56:34;24.60;36.20
37868;DHT22;24011;48.880;9.190;2023-03-15T08:59:03;24.60;36.30
37868;DHT22;24011;48.880;9.190;2023-03-15T09:01:34;24.70;36.20
37868;DHT22;24011;48.880;9.190;2023-03-15T09:04:07;24.80;36.20
37868;DHT22;24011;48.880;9.190;2023-03-15T09:06:40;24.80;36.00
37868;DHT22;24011;48.880;9.190;2023-03-15T09:09:08;24.80;36.10
37868;DHT22;24011;48.880;9.190;2023-03-15T09:11:38;24.80;36.10
37868;DHT22;24011;48.880;9.190;2023-03-15T09:14:07;24.80;36.00
37868;DHT22;24011;48.880;9.190;2023-03-15T09:16:36;24.80;36.00
37868;DHT22;24011;48.880;9.190;2023-03-15T10:07:08;24.90;36.00
37868;DHT22;24011;48.880;9.190;2023-03-15T10:38:58;25.10;35.50
37868;DHT22;24011;48.880;9.190;2023-03-15T10:41:36;25.20;35.50
37868;DHT22;24011;48.880;9.190;2023-03-15T10:44:10;25.10;35.50
37868;DHT22;24011;48.880;9.190;2023-03-15T10:46:39;25.10;35.40
37868;DHT22;24011;48.880;9.190;2023-03-15T10:49:10;25.10;35.40
37868;DHT22;24011;48.880;9.190;2023-03-15T10:51:44;25.20;35.30
37868;DHT22;24011;48.880;9.190;2023-03-15T10:54:17;25.10;35.40
37868;DHT22;24011;48.880;9.190;2023-03-15T10:56:48;25.10;35.30
37868;DHT22;24011;48.880;9.190;2023-03-15T10:59:18;25.10;35.40
37868;DHT22;24011;48.880;9.190;2023-03-15T11:01:50;25.10;35.30
37868;DHT22;24011;48.880;9.190;2023-03-15T11:04:21;25.10;35.30
37868;DHT22;24011;48.880;9.190;2023-03-15T11:07:00;25.10;35.30
37868;DHT22;24011;48.880;9.190;2023-03-15T11:09:40;25.10;35.20
37868;DHT22;24011;48.880;9.190;2023-03-15T11:12:14;25.10;35.10
37868;DHT22;24011;48.880;9.190;2023-03-15T11:14:47;25.10;35.10
37868;DHT22;24011;48.880;9.190;2023-03-15T11:17:18;25.10;35.10
37868;DHT22;24011;48.880;9.190;2023-03-15T11:19:55;25.10;35.10
37868;DHT22;24011;48.880;9.190;2023-03-15T11:22:26;25.10;35.10
37868;DHT22;24011;48.880;9.190;2023-03-15T11:24:56;25.00;35.10
37868;DHT22;24011;48.880;9.190;2023-03-15T11:27:27;25.00;35.00
37868;DHT22;24011;48.880;9.190;2023-03-15T11:29:59;25.00;35.20
37868;DHT22;24011;48.880;9.190;2023-03-15T11:32:31;25.10;35.10
37868;DHT22;24011;48.880;9.190;2023-03-15T11:35:03;25.00;35.10
37868;DHT22;24011;48.880;9.190;2023-03-15T11:37:39;25.00;35.00
37868;DHT22;24011;48.880;9.190;2023-03-15T11:40:14;25.00;35.00
37868;DHT22;24011;48.880;9.190;2023-03-15T11:42:48;25.00;35.00
37868;DHT22;24011;48.880;9.190;2023-03-15T11:45:26;25.00;35.00
37868;DHT22;24011;48.880;9.190;2023-03-15T11:48:00;25.10;35.10
37868;DHT22;24011;48.880;9.190;2023-03-15T11:50:31;25.10;35.00
37868;DHT22;24011;48.880;9.190;2023-03-15T11:53:02;25.10;35.00
37868;DHT22;24011;48.880;9.190;2023-03-15T11:55:36;25.10;34.90
37868;DHT22;24011;48.880;9.190;2023-03-15T11:58:26;25.10;35.00
37868;DHT22;24011;48.880;9.190;2023-03-15T12:00:59;25.20;34.80
37868;DHT22;24011;48.880;9.190;2023-03-15T13:15:46;25.20;34.90
37868;DHT22;24011;48.880;9.190;2023-03-15T13:18:22;25.40;35.00
37868;DHT22;24011;48.880;9.190;2023-03-15T13:21:04;25.30;34.90
37868;DHT22;24011;48.880;9.190;2023-03-15T13:23:42;25.30;34.90
37868;DHT22;24011;48.880;9.190;2023-03-15T13:26:23;25.30;34.90
37868;DHT22;24011;48.880;9.190;2023-03-15T13:28:59;25.20;35.00
37868;DHT22;24011;48.880;9.190;2023-03-15T13:31:29;25.30;35.10
37868;DHT22;24011;48.880;9.190;2023-03-15T13:34:10;25.20;35.10
37868;DHT22;24011;48.880;9.190;2023-03-15T13:36:44;25.30;35.00
37868;DHT22;24011;48.880;9.190;2023-03-15T13:39:18;25.20;35.00
37868;DHT22;24011;48.880;9.190;2023-03-15T13:41:56;25.20;35.10
37868;DHT22;24011;48.880;9.190;2023-03-15T13:44:26;25.20;35.20
37868;DHT22;24011;48.880;9.190;2023-03-15T13:46:57;25.20;35.20
37868;DHT22;24011;48.880;9.190;2023-03-15T13:49:30;25.20;35.20
37868;DHT22;24011;48.880;9.190;2023-03-15T13:52:01;25.20;35.10
37868;DHT22;24011;48.880;9.190;2023-03-15T13:54:34;25.20;35.10
37868;DHT22;24011;48.880;9.190;2023-03-15T13:57:06;25.20;35.20
37868;DHT22;24011;48.880;9.190;2023-03-15T13:59:39;25.20;35.10
37868;DHT22;24011;48.880;9.190;2023-03-15T14:06:21;25.30;35.00
37868;DHT22;24011;48.880;9.190;2023-03-15T14:08:53;25.20;35.00
37868;DHT22;24011;48.880;9.190;2023-03-15T14:11:35;25.20;35.00
37868;DHT22;24011;48.880;9.190;2023-03-15T14:14:21;25.30;34.90
37868;DHT22;24011;48.880;9.190;2023-03-15T14:16:51;25.40;34.90
37868;DHT22;24011;48.880;9.190;2023-03-15T14:19:35;25.40;34.80
37868;DHT22;24011;48.880;9.190;2023-03-15T14:22:13;25.40;34.90
37868;DHT22;24011;48.880;9.190;2023-03-15T14:24:47;25.40;34.80
37868;DHT22;24011;48.880;9.190;2023-03-15T15:20:19;25.00;35.00
37868;DHT22;24011;48.880;9.190;2023-03-15T16:20:22;24.80;35.70
37868;DHT22;24011;48.880;9.190;2023-03-15T16:22:54;24.80;35.60
37868;DHT22;24011;48.880;9.190;2023-03-15T16:25:27;24.80;35.60
37868;DHT22;24011;48.880;9.190;2023-03-15T16:28:01;24.80;35.60
37868;DHT22;24011;48.880;9.190;2023-03-15T16:30:36;24.80;35.60
37868;DHT22;24011;48.880;9.190;2023-03-15T16:33:12;24.80;35.60
37868;DHT22;24011;48.880;9.190;2023-03-15T16:35:48;24.80;35.60
37868;DHT22;24011;48.880;9.190;2023-03-15T16:38:26;24.80;35.60
37868;DHT22;24011;48.880;9.190;2023-03-15T16:40:59;24.80;35.60
37868;DHT22;24011;48.880;9.190;2023-03-15T16:43:30;24.80;35.60
37868;DHT22;24011;48.880;9.190;2023-03-15T16:46:00;24.80;35.60
37868;DHT22;24011;48.880;9.190;2023-03-15T16:48:34;24.80;35.60
37868;DHT22;24011;48.880;9.190;2023-03-15T16:51:06;24.80;35.70
37868;DHT22;24011;48.880;9.190;2023-03-15T16:53:36;24.80;35.70
37868;DHT22;24011;48.880;9.190;2023-03-15T16:56:08;24.80;35.60
37868;DHT22;24011;48.880;9.190;2023-03-15T17:15:23;24.70;35.60
37868;DHT22;24011;48.880;9.190;2023-03-15T17:17:54;24.60;35.70
37868;DHT22;24011;48.880;9.190;2023-03-15T17:20:31;24.60;35.80
37868;DHT22;24011;48.880;9.190;2023-03-15T17:23:03;24.60;35.80
37868;DHT22;24011;48.880;9.190;2023-03-15T17:25:34;24.60;35.70
37868;DHT22;24011;48.880;9.190;2023-03-15T17:28:12;24.60;35.80
37868;DHT22;24011;48.880;9.190;2023-03-15T17:30:44;24.50;35.80
37868;DHT22;24011;48.880;9.190;2023-03-15T17:33:26;24.50;35.90
37868;DHT22;24011;48.880;9.190;2023-03-15T17:35:57;24.60;35.80
37868;DHT22;24011;48.880;9.190;2023-03-15T17:38:30;24.60;35.80
37868;DHT22;24011;48.880;9.190;2023-03-15T17:41:01;24.50;35.70
37868;DHT22;24011;48.880;9.190;2023-03-15T17:43:35;24.60;35.70
37868;DHT22;24011;48.880;9.190;2023-03-15T17:46:13;24.50;35.60
37868;DHT22;24011;48.880;9.190;2023-03-15T17:48:45;24.50;35.80
37868;DHT22;24011;48.880;9.190;2023-03-15T17:51:20;24.50;35.70
37868;DHT22;24011;48.880;9.190;2023-03-15T17:53:55;24.50;36.20
37868;DHT22;24011;48.880;9.190;2023-03-15T17:56:28;24.50;35.70
37868;DHT22;24011;48.880;9.190;2023-03-15T17:58:58;24.50;35.70
37868;DHT22;24011;48.880;9.190;2023-03-15T18:01:31;24.50;35.80
37868;DHT22;24011;48.880;9.190;2023-03-15T18:04:05;24.40;35.70
37868;DHT22;24011;48.880;9.190;2023-03-15T18:06:39;24.40;35.60
37868;DHT22;24011;48.880;9.190;2023-03-15T18:09:11;24.40;35.60
37868;DHT22;24011;48.880;9.190;2023-03-15T18:11:42;24.40;35.60
37868;DHT22;24011;48.880;9.190;2023-03-15T18:14:17;24.40;35.60
37868;DHT22;24011;48.880;9.190;2023-03-15T18:16:51;24.40;35.60
37868;DHT22;24011;48.880;9.190;2023-03-15T18:19:22;24.40;35.60
37868;DHT22;24011;48.880;9.190;2023-03-15T18:21:55;24.40;35.60
37868;DHT22;24011;48.880;9.190;2023-03-15T18:24:26;24.40;35.60
37868;DHT22;24011;48.880;9.190;2023-03-15T18:26:57;24.40;35.60
37868;DHT22;24011;48.880;9.190;2023-03-15T18:29:31;24.30;35.60
37868;DHT22;24011;48.880;9.190;2023-03-15T18:32:12;24.40;35.60
37868;DHT22;24011;48.880;9.190;2023-03-15T18:34:42;24.40;35.60
37868;DHT22;24011;48.880;9.190;2023-03-15T18:37:17;24.30;35.60
37868;DHT22;24011;48.880;9.190;2023-03-15T18:39:50;24.40;35.70
37868;DHT22;24011;48.880;9.190;2023-03-15T18:42:22;24.30;35.60
37868;DHT22;24011;48.880;9.190;2023-03-15T18:44:53;24.30;35.60
37868;DHT22;24011;48.880;9.190;2023-03-15T18:47:27;24.30;35.60
37868;DHT22;24011;48.880;9.190;2023-03-15T18:49:57;24.40;35.60
37868;DHT22;24011;48.880;9.190;2023-03-15T18:52:37;24.30;35.60
37868;DHT22;24011;48.880;9.190;2023-03-15T18:55:11;24.30;35.60
37868;DHT22;24011;48.880;9.190;2023-03-15T18:57:42;24.30;35.60
37868;DHT22;24011;48.880;9.190;2023-03-15T19:00:16;24.30;35.60
37868;DHT22;24011;48.880;9.190;2023-03-15T19:02:58;24.30;35.60
37868;DHT22;24011;48.880;9.190;2023-03-15T19:05:33;24.30;35.50
37868;DHT22;24011;48.880;9.190;2023-03-15T19:08:05;24.30;35.50
37868;DHT22;24011;48.880;9.190;2023-03-15T19:10:36;24.30;35.60
37868;DHT22;24011;48.880;9.190;2023-03-15T19:13:07;24.30;35.50
37868;DHT22;24011;48.880;9.190;2023-03-15T19:15:39;24.30;35.50
37868;DHT22;24011;48.880;9.190;2023-03-15T19:18:15;24.40;35.50
37868;DHT22;24011;48.880;9.190;2023-03-15T19:20:47;24.40;35.50
37868;DHT22;24011;48.880;9.190;2023-03-15T19:23:19;24.40;35.50
37868;DHT22;24011;48.880;9.190;2023-03-15T19:25:50;24.40;35.90
37868;DHT22;24011;48.880;9.190;2023-03-15T19:28:23;24.40;35.50
37868;DHT22;24011;48.880;9.190;2023-03-15T19:30:55;24.40;35.40
37868;DHT22;24011;48.880;9.190;2023-03-15T19:33:28;24.40;35.50
37868;DHT22;24011;48.880;9.190;2023-03-15T19:36:00;24.40;35.40
37868;DHT22;24011;48.880;9.190;2023-03-15T19:38:33;24.40;35.40
37868;DHT22;24011;48.880;9.190;2023-03-15T19:41:06;24.40;35.40
37868;DHT22;24011;48.880;9.190;2023-03-15T19:43:40;24.40;35.50
37868;DHT22;24011;48.880;9.190;2023-03-15T19:46:14;24.40;35.40
37868;DHT22;24011;48.880;9.190;2023-03-15T19:48:48;24.40;35.40
37868;DHT22;24011;48.880;9.190;2023-03-15T19:51:23;24.40;35.40
37868;DHT22;24011;48.880;9.190;2023-03-15T19:53:56;24.40;35.50
37868;DHT22;24011;48.880;9.190;2023-03-15T19:56:27;24.40;35.50
37868;DHT22;24011;48.880;9.190;2023-03-15T19:58:58;24.40;35.40
37868;DHT22;24011;48.880;9.190;2023-03-15T20:01:30;24.40;35.40
37868;DHT22;24011;48.880;9.190;2023-03-15T20:04:06;24.40;35.40
37868;DHT22;24011;48.880;9.190;2023-03-15T20:06:38;24.50;35.40
37868;DHT22;24011;48.880;9.190;2023-03-15T20:09:09;24.50;35.30
37868;DHT22;24011;48.880;9.190;2023-03-15T20:11:42;24.50;35.20
37868;DHT22;24011;48.880;9.190;2023-03-15T20:14:14;24.50;35.30
37868;DHT22;24011;48.880;9.190;2023-03-15T20:16:48;24.40;35.30
37868;DHT22;24011;48.880;9.190;2023-03-15T20:19:23;24.50;35.20
37868;DHT22;24011;48.880;9.190;2023-03-15T20:21:55;24.50;35.20
37868;DHT22;24011;48.880;9.190;2023-03-15T20:24:30;24.50;35.20
37868;DHT22;24011;48.880;9.190;2023-03-15T20:27:02;24.40;35.20
37868;DHT22;24011;48.880;9.190;2023-03-15T20:29:33;24.40;35.20
37868;DHT22;24011;48.880;9.190;2023-03-15T20:32:05;24.50;35.30
37868;DHT22;24011;48.880;9.190;2023-03-15T20:34:40;24.40;35.30
37868;DHT22;24011;48.880;9.190;2023-03-15T20:37:14;24.40;35.20
37868;DHT22;24011;48.880;9.190;2023-03-15T20:39:47;24.40;35.30
37868;DHT22;24011;48.880;9.190;2023-03-15T20:42:19;24.40;35.20
37868;DHT22;24011;48.880;9.190;2023-03-15T20:44:51;24.40;35.30
37868;DHT22;24011;48.880;9.190;2023-03-15T20:47:22;24.40;35.20